Time;durP1;ratioP1;P1;durP2;ratioP2;P2;SDS_P1;SDS_P2;PMS_P1;PMS_P2;Temp;Humidity;BMP_temperature;BMP_pressure;BME280_temperature;BME280_humidity;BME280_pressure;Samples;Min_cycle;Max_cycle;Signal;HPM_P1;HPM_P2
2023/12/26 00:01:38;;;;;;;81.80;46.33;;;;;;;;;;12836715;22;20374;-81
2023/12/26 00:06:43;;;;;;;78.53;45.17;;;;;;;;;;12837959;22;20446;-83
2023/12/26 00:11:47;;;;;;;74.70;44.10;;;;;;;;;;12837841;23;20416;-83
2023/12/26 00:16:50;;;;;;;72.55;42.70;;;;;;;;;;12840406;23;20858;-83
2023/12/26 00:21:52;;;;;;;67.90;42.38;;;;;;;;;;12839887;23;20400;-83
2023/12/26 00:26:56;;;;;;;69.40;41.75;;;;;;;;;;12841357;23;20443;-83
2023/12/26 00:31:58;;;;;;;70.20;41.95;;;;;;;;;;12843070;23;20691;-82
2023/12/26 00:37:00;;;;;;;72.00;42.53;;;;;;;;;;12843187;22;20374;-84
2023/12/26 00:42:04;;;;;;;65.03;41.17;;;;;;;;;;12841567;23;20420;-83
2023/12/26 00:47:07;;;;;;;67.35;41.83;;;;;;;;;;12842175;23;20390;-83
2023/12/26 00:52:09;;;;;;;63.80;39.90;;;;;;;;;;12842648;23;20452;-83
2023/12/26 00:57:13;;;;;;;65.27;39.83;;;;;;;;;;12842311;23;20494;-83
2023/12/26 01:02:15;;;;;;;65.88;39.00;;;;;;;;;;12842682;23;20370;-83
2023/12/26 01:07:18;;;;;;;70.10;40.63;;;;;;;;;;12838435;23;20419;-84
2023/12/26 01:12:21;;;;;;;69.13;40.35;;;;;;;;;;12837703;23;20439;-84
2023/12/26 01:17:24;;;;;;;65.32;39.40;;;;;;;;;;12838743;22;20371;-83
2023/12/26 01:22:26;;;;;;;61.55;38.85;;;;;;;;;;12837213;23;20392;-83
2023/12/26 01:27:30;;;;;;;59.33;38.42;;;;;;;;;;12839462;23;20386;-83
2023/12/26 01:32:32;;;;;;;63.28;37.45;;;;;;;;;;12842268;23;20431;-83
2023/12/26 01:37:34;;;;;;;60.10;38.08;;;;;;;;;;12839922;23;20795;-83
2023/12/26 01:42:38;;;;;;;61.53;37.87;;;;;;;;;;12837754;23;20378;-84
2023/12/26 01:47:41;;;;;;;63.72;38.67;;;;;;;;;;12838008;23;20973;-83
2023/12/26 01:52:44;;;;;;;64.88;39.67;;;;;;;;;;12841355;23;20362;-83
2023/12/26 01:57:48;;;;;;;67.28;40.63;;;;;;;;;;12842655;22;20404;-83
2023/12/26 02:02:52;;;;;;;71.07;40.70;;;;;;;;;;12842625;23;20362;-83
2023/12/26 02:07:55;;;;;;;69.65;42.17;;;;;;;;;;12842988;23;20382;-83
2023/12/26 02:12:59;;;;;;;71.55;41.42;;;;;;;;;;12842447;23;20435;-82
2023/12/26 02:18:01;;;;;;;70.25;42.22;;;;;;;;;;12842171;23;20938;-83
2023/12/26 02:23:04;;;;;;;68.15;40.40;;;;;;;;;;12841898;23;20371;-83
2023/12/26 02:28:08;;;;;;;66.20;39.63;;;;;;;;;;12841662;23;20390;-82
2023/12/26 02:33:11;;;;;;;66.63;39.40;;;;;;;;;;12841943;23;20404;-83
2023/12/26 02:38:13;;;;;;;63.58;38.50;;;;;;;;;;12842137;23;20434;-83
2023/12/26 02:43:17;;;;;;;63.83;37.85;;;;;;;;;;12840995;23;20386;-83
2023/12/26 02:48:19;;;;;;;59.10;36.65;;;;;;;;;;12842176;22;20383;-83
2023/12/26 02:53:22;;;;;;;58.23;37.17;;;;;;;;;;12841314;23;20432;-83
2023/12/26 02:58:25;;;;;;;58.33;36.67;;;;;;;;;;12843771;23;20404;-83
2023/12/26 03:03:28;;;;;;;61.60;37.65;;;;;;;;;;12844883;23;20370;-82
2023/12/26 03:08:30;;;;;;;63.40;38.60;;;;;;;;;;12842614;23;20774;-82
2023/12/26 03:13:34;;;;;;;63.05;36.60;;;;;;;;;;12843429;23;20756;-82
2023/12/26 03:18:36;;;;;;;64.73;38.60;;;;;;;;;;12844371;22;20394;-83
2023/12/26 03:23:38;;;;;;;65.07;37.73;;;;;;;;;;12843433;23;20427;-83
2023/12/26 03:28:42;;;;;;;64.80;36.73;;;;;;;;;;12844890;22;20381;-82
2023/12/26 03:33:44;;;;;;;62.00;36.67;;;;;;;;;;12842864;23;20378;-83
2023/12/26 03:38:47;;;;;;;61.55;36.45;;;;;;;;;;12843718;23;20374;-83
2023/12/26 03:43:51;;;;;;;64.07;36.83;;;;;;;;;;12844489;23;20423;-83
2023/12/26 03:48:53;;;;;;;59.45;36.45;;;;;;;;;;12843824;23;20447;-82
2023/12/26 03:53:55;;;;;;;64.68;36.80;;;;;;;;;;12843103;23;20877;-84
2023/12/26 03:58:59;;;;;;;65.30;37.85;;;;;;;;;;12844336;23;20400;-83
2023/12/26 04:04:02;;;;;;;63.63;36.35;;;;;;;;;;12843649;23;20759;-83
2023/12/26 04:09:05;;;;;;;65.73;38.37;;;;;;;;;;12843141;23;20386;-82
2023/12/26 04:14:09;;;;;;;61.55;37.55;;;;;;;;;;12842803;23;20419;-82
2023/12/26 04:19:11;;;;;;;64.40;37.23;;;;;;;;;;12844626;23;20374;-83
2023/12/26 04:24:13;;;;;;;63.92;38.33;;;;;;;;;;12843089;23;20726;-83
2023/12/26 04:29:17;;;;;;;65.10;39.53;;;;;;;;;;12843432;23;20942;-82
2023/12/26 04:34:19;;;;;;;59.45;38.08;;;;;;;;;;12846274;22;20443;-82
2023/12/26 04:39:22;;;;;;;64.60;39.53;;;;;;;;;;12842497;22;20494;-82
2023/12/26 04:44:26;;;;;;;63.72;38.85;;;;;;;;;;12844432;23;20439;-82
2023/12/26 04:49:28;;;;;;;69.28;39.05;;;;;;;;;;12843755;23;20390;-83
2023/12/26 04:54:30;;;;;;;65.35;39.60;;;;;;;;;;12843263;23;20443;-83
2023/12/26 04:59:38;;;;;;;65.17;37.73;;;;;;;;;;12844008;23;20386;-83
2023/12/26 05:04:40;;;;;;;65.85;39.67;;;;;;;;;;12843705;23;20447;-83
2023/12/26 05:09:43;;;;;;;63.33;38.20;;;;;;;;;;12843753;22;20416;-83
2023/12/26 05:14:47;;;;;;;62.20;36.83;;;;;;;;;;12841852;23;20370;-83
2023/12/26 05:19:49;;;;;;;63.28;38.17;;;;;;;;;;12841658;23;20370;-83
2023/12/26 05:24:52;;;;;;;59.30;35.47;;;;;;;;;;12842198;22;20436;-83
2023/12/26 05:29:55;;;;;;;59.33;34.63;;;;;;;;;;12843208;23;20386;-83
2023/12/26 05:34:58;;;;;;;53.40;32.28;;;;;;;;;;12842327;23;20374;-82
2023/12/26 05:40:00;;;;;;;54.53;32.58;;;;;;;;;;12843208;23;20370;-83
2023/12/26 05:45:05;;;;;;;48.50;29.98;;;;;;;;;;12843815;23;20834;-83
2023/12/26 05:50:09;;;;;;;46.50;29.23;;;;;;;;;;12817118;23;20756;-83
2023/12/26 05:55:11;;;;;;;49.05;29.88;;;;;;;;;;12842814;23;20382;-82
2023/12/26 06:00:16;;;;;;;44.35;27.92;;;;;;;;;;12843285;23;20428;-83
2023/12/26 06:17:52;;;;;;;40.92;25.38;;;;;;;;;;12841668;22;20431;-83
2023/12/26 06:22:54;;;;;;;41.60;24.83;;;;;;;;;;12843044;22;20366;-82
2023/12/26 06:27:56;;;;;;;46.97;29.80;;;;;;;;;;12843703;22;20752;-83
2023/12/26 06:33:00;;;;;;;42.30;24.85;;;;;;;;;;12845884;22;20366;-83
2023/12/26 06:38:10;;;;;;;44.65;25.65;;;;;;;;;;12846914;22;20437;-83
2023/12/26 06:43:14;;;;;;;77.13;41.35;;;;;;;;;;12845753;22;20490;-83
2023/12/26 06:48:17;;;;;;;37.60;23.80;;;;;;;;;;12845726;22;20382;-83
2023/12/26 06:53:20;;;;;;;43.08;26.60;;;;;;;;;;12845746;22;20400;-82
2023/12/26 06:58:22;;;;;;;70.43;41.90;;;;;;;;;;12842923;23;20370;-82
2023/12/26 07:03:26;;;;;;;53.65;31.98;;;;;;;;;;12842831;22;20362;-83
2023/12/26 07:08:28;;;;;;;45.95;27.77;;;;;;;;;;12844655;22;20394;-82
2023/12/26 07:13:30;;;;;;;49.27;31.03;;;;;;;;;;12844780;22;20480;-82
2023/12/26 07:18:34;;;;;;;45.77;27.50;;;;;;;;;;12845894;22;20370;-82
2023/12/26 07:23:36;;;;;;;52.20;31.15;;;;;;;;;;12844385;22;20431;-82
2023/12/26 07:28:39;;;;;;;50.35;29.90;;;;;;;;;;12844872;22;20374;-83
2023/12/26 07:33:42;;;;;;;47.72;30.33;;;;;;;;;;12843776;22;20408;-83
2023/12/26 07:38:45;;;;;;;48.10;29.63;;;;;;;;;;12842732;23;20367;-83
2023/12/26 07:43:47;;;;;;;56.25;34.47;;;;;;;;;;12844456;22;20439;-83
2023/12/26 07:48:51;;;;;;;48.75;30.75;;;;;;;;;;12845320;22;20374;-82
2023/12/26 07:53:54;;;;;;;52.93;32.20;;;;;;;;;;12844015;22;20759;-82
2023/12/26 07:58:56;;;;;;;54.72;32.65;;;;;;;;;;12844962;22;20370;-83
2023/12/26 08:04:00;;;;;;;51.08;33.05;;;;;;;;;;12845360;23;20910;-83
2023/12/26 08:09:03;;;;;;;47.05;30.08;;;;;;;;;;12840900;22;20446;-84
2023/12/26 08:14:06;;;;;;;49.67;31.08;;;;;;;;;;12842537;22;20378;-86
2023/12/26 08:19:10;;;;;;;55.00;33.05;;;;;;;;;;12842691;22;20366;-86
2023/12/26 08:24:12;;;;;;;54.30;33.42;;;;;;;;;;12837929;23;20379;-86
2023/12/26 08:29:14;;;;;;;51.80;33.28;;;;;;;;;;12841454;22;20390;-86
2023/12/26 08:34:19;;;;;;;52.33;32.95;;;;;;;;;;12840847;22;20431;-86
2023/12/26 08:39:21;;;;;;;54.47;33.45;;;;;;;;;;12838250;22;20366;-83
2023/12/26 08:44:24;;;;;;;51.78;33.60;;;;;;;;;;12842022;22;20370;-83
2023/12/26 08:49:27;;;;;;;53.83;34.40;;;;;;;;;;12840865;22;20471;-86
2023/12/26 08:54:30;;;;;;;59.28;36.45;;;;;;;;;;12838464;22;20443;-83
2023/12/26 08:59:32;;;;;;;56.58;36.67;;;;;;;;;;12829716;22;20411;-85
2023/12/26 09:04:36;;;;;;;57.22;36.13;;;;;;;;;;12833446;22;20382;-85
2023/12/26 09:09:38;;;;;;;63.63;38.63;;;;;;;;;;12833477;22;20444;-83
2023/12/26 09:14:41;;;;;;;69.53;40.20;;;;;;;;;;12831175;22;20726;-83
2023/12/26 09:19:45;;;;;;;60.85;37.15;;;;;;;;;;12833494;22;20458;-84
2023/12/26 09:24:47;;;;;;;60.33;37.10;;;;;;;;;;12830989;22;20390;-85
2023/12/26 09:29:50;;;;;;;67.17;42.40;;;;;;;;;;12826103;22;20447;-86
2023/12/26 09:34:53;;;;;;;69.60;41.58;;;;;;;;;;12828194;22;20382;-85
2023/12/26 09:39:56;;;;;;;67.47;40.97;;;;;;;;;;12832699;22;20993;-84
2023/12/26 09:44:59;;;;;;;75.72;45.92;;;;;;;;;;12827496;22;20382;-85
2023/12/26 09:50:03;;;;;;;67.53;42.07;;;;;;;;;;12823517;22;20741;-85
2023/12/26 09:55:07;;;;;;;71.63;42.20;;;;;;;;;;12830976;22;20439;-85
2023/12/26 10:00:10;;;;;;;66.82;43.45;;;;;;;;;;12829842;22;20443;-85
2023/12/26 10:05:14;;;;;;;72.18;43.75;;;;;;;;;;12828769;22;20436;-86
2023/12/26 10:10:20;;;;;;;72.23;45.40;;;;;;;;;;12845335;22;20437;-86
2023/12/26 10:58:32;;;;;;;77.43;49.77;;;;;;;;;;13066331;22;2067464;-88
2023/12/26 11:03:35;;;;;;;78.18;49.35;;;;;;;;;;13055746;22;20376;-86
2023/12/26 11:08:38;;;;;;;82.15;48.78;;;;;;;;;;13054338;22;20376;-87
2023/12/26 11:13:42;;;;;;;78.10;48.90;;;;;;;;;;13056222;22;20376;-88
2023/12/26 11:18:46;;;;;;;79.65;49.35;;;;;;;;;;13054843;22;20403;-87
2023/12/26 11:23:50;;;;;;;91.40;55.60;;;;;;;;;;13055336;22;20430;-88
2023/12/26 11:28:53;;;;;;;79.57;49.38;;;;;;;;;;13058726;22;20410;-87
2023/12/26 11:33:56;;;;;;;79.40;50.70;;;;;;;;;;13080581;22;20445;-87
2023/12/26 11:38:59;;;;;;;84.30;53.15;;;;;;;;;;13059356;22;20364;-89
2023/12/26 11:44:02;;;;;;;82.93;53.90;;;;;;;;;;13061706;22;20441;-93
2023/12/26 11:49:05;;;;;;;83.35;50.70;;;;;;;;;;13060350;22;20361;-87
2023/12/26 11:54:08;;;;;;;84.32;51.63;;;;;;;;;;13078582;22;20481;-88
2023/12/26 11:59:11;;;;;;;77.90;50.53;;;;;;;;;;13051112;22;20377;-88
2023/12/26 12:04:14;;;;;;;83.32;52.85;;;;;;;;;;13039998;22;20377;-88
2023/12/26 12:09:17;;;;;;;83.40;52.13;;;;;;;;;;13065158;22;20369;-88
2023/12/26 12:14:21;;;;;;;88.80;52.87;;;;;;;;;;13040037;22;20681;-87
2023/12/26 12:19:24;;;;;;;87.78;54.33;;;;;;;;;;13044740;22;20357;-88
2023/12/26 12:24:26;;;;;;;87.55;52.10;;;;;;;;;;13046000;22;20427;-88
2023/12/26 12:29:59;;;;;;;87.15;53.00;;;;;;;;;;13045918;22;20361;-87
2023/12/26 12:35:11;;;;;;;86.88;54.40;;;;;;;;;;13047143;22;20369;-88
2023/12/26 12:40:14;;;;;;;84.85;52.10;;;;;;;;;;13047497;22;20356;-88
2023/12/26 12:45:18;;;;;;;86.85;51.95;;;;;;;;;;13047582;22;20368;-87
2023/12/26 12:50:20;;;;;;;88.32;52.83;;;;;;;;;;13047902;22;20365;-88
2023/12/26 12:55:23;;;;;;;93.27;55.33;;;;;;;;;;13045832;22;20965;-88
2023/12/26 13:00:27;;;;;;;89.77;57.17;;;;;;;;;;13047361;22;20361;-88
2023/12/26 13:05:29;;;;;;;98.43;58.20;;;;;;;;;;13066948;22;20430;-87
2023/12/26 13:10:31;;;;;;;90.83;55.10;;;;;;;;;;13044982;22;20357;-88
2023/12/26 13:15:35;;;;;;;96.32;56.63;;;;;;;;;;13082345;22;20395;-88
2023/12/26 13:20:40;;;;;;;97.93;55.90;;;;;;;;;;13045869;22;20744;-87
2023/12/26 13:25:42;;;;;;;91.38;57.08;;;;;;;;;;13045535;22;20415;-87
2023/12/26 13:30:49;;;;;;;93.15;57.28;;;;;;;;;;13068330;22;20414;-87
2023/12/26 13:35:51;;;;;;;96.40;58.03;;;;;;;;;;13044817;22;20402;-88
2023/12/26 13:40:54;;;;;;;89.07;53.72;;;;;;;;;;13044453;22;20414;-88
2023/12/26 13:45:58;;;;;;;89.28;53.47;;;;;;;;;;13043766;22;20833;-85
2023/12/26 13:51:00;;;;;;;87.00;54.00;;;;;;;;;;13045362;22;20361;-87
2023/12/26 13:56:02;;;;;;;95.80;55.40;;;;;;;;;;13044859;22;20476;-87
2023/12/26 14:01:06;;;;;;;90.23;54.43;;;;;;;;;;13049041;22;20441;-86
2023/12/26 14:06:09;;;;;;;91.22;54.90;;;;;;;;;;13045588;22;20434;-87
2023/12/26 14:11:11;;;;;;;87.72;50.40;;;;;;;;;;13044536;22;20396;-87
2023/12/26 14:16:18;;;;;;;83.70;50.95;;;;;;;;;;13045812;22;20373;-87
2023/12/26 14:21:21;;;;;;;88.55;51.00;;;;;;;;;;13045092;22;20361;-87
2023/12/26 14:26:24;;;;;;;82.80;48.50;;;;;;;;;;13045008;22;20457;-87
2023/12/26 14:31:28;;;;;;;85.07;49.58;;;;;;;;;;13078522;22;20365;-85
2023/12/26 14:36:30;;;;;;;89.38;49.90;;;;;;;;;;13047456;22;20388;-87
2023/12/26 14:41:33;;;;;;;90.93;49.92;;;;;;;;;;13044258;22;20689;-87
2023/12/26 14:46:37;;;;;;;86.93;50.20;;;;;;;;;;13044112;22;20852;-87
2023/12/26 14:51:39;;;;;;;86.40;49.03;;;;;;;;;;13062348;22;20358;-87
2023/12/26 14:56:42;;;;;;;83.10;51.00;;;;;;;;;;13043237;22;20357;-86
2023/12/26 15:01:45;;;;;;;81.90;49.00;;;;;;;;;;13066002;22;20364;-86
2023/12/26 15:06:48;;;;;;;90.82;50.80;;;;;;;;;;13053402;22;20380;-87
2023/12/26 15:11:50;;;;;;;87.13;51.27;;;;;;;;;;13038997;22;20452;-87
2023/12/26 15:16:54;;;;;;;77.57;47.47;;;;;;;;;;13041966;22;20356;-87
2023/12/26 15:21:56;;;;;;;87.43;50.65;;;;;;;;;;13062946;22;20860;-87
2023/12/26 15:26:59;;;;;;;85.18;49.08;;;;;;;;;;13035654;22;20438;-87
2023/12/26 15:32:03;;;;;;;90.20;49.80;;;;;;;;;;13069067;22;20461;-87
2023/12/26 15:37:06;;;;;;;88.18;49.97;;;;;;;;;;13047788;22;20395;-86
2023/12/26 15:42:08;;;;;;;86.18;50.25;;;;;;;;;;13046140;22;20391;-87
2023/12/26 15:47:12;;;;;;;86.88;48.30;;;;;;;;;;13049123;22;20898;-87
2023/12/26 15:52:14;;;;;;;84.43;49.67;;;;;;;;;;13061571;22;20395;-87
2023/12/26 15:57:16;;;;;;;84.68;49.30;;;;;;;;;;13046386;22;20701;-87
2023/12/26 16:02:21;;;;;;;87.97;49.97;;;;;;;;;;13046493;22;20430;-87
2023/12/26 16:07:24;;;;;;;90.90;50.88;;;;;;;;;;13069513;22;20372;-87
2023/12/26 16:12:26;;;;;;;92.32;52.03;;;;;;;;;;13047574;22;20365;-87
2023/12/26 16:17:30;;;;;;;90.30;50.67;;;;;;;;;;13047618;22;20396;-87
2023/12/26 16:22:32;;;;;;;84.75;49.42;;;;;;;;;;13048197;22;20361;-87
2023/12/26 16:27:35;;;;;;;87.82;51.33;;;;;;;;;;13048619;22;20438;-87
2023/12/26 16:32:39;;;;;;;80.53;48.50;;;;;;;;;;13047312;22;20365;-87
2023/12/26 16:37:41;;;;;;;90.03;51.40;;;;;;;;;;13069245;22;20422;-87
2023/12/26 16:42:44;;;;;;;102.97;55.90;;;;;;;;;;13046435;22;20384;-87
2023/12/26 16:47:49;;;;;;;96.97;55.22;;;;;;;;;;13043529;22;20407;-87
2023/12/26 16:52:52;;;;;;;93.13;53.00;;;;;;;;;;13064513;22;20426;-80
2023/12/26 16:57:54;;;;;;;95.83;53.43;;;;;;;;;;13038292;22;20373;-84
2023/12/26 17:02:58;;;;;;;99.50;55.03;;;;;;;;;;13035425;22;20410;-86
2023/12/26 17:08:00;;;;;;;102.55;57.58;;;;;;;;;;13043718;22;20385;-86
2023/12/26 17:13:03;;;;;;;102.05;58.05;;;;;;;;;;13036396;22;20373;-91
2023/12/26 17:18:07;;;;;;;99.13;55.92;;;;;;;;;;13041564;22;20560;-92
2023/12/26 17:23:09;;;;;;;101.88;57.58;;;;;;;;;;13039529;22;20381;-90
2023/12/26 17:28:13;;;;;;;95.68;56.33;;;;;;;;;;13037876;22;20411;-86
2023/12/26 17:33:16;;;;;;;93.50;55.50;;;;;;;;;;13033012;22;20389;-85
2023/12/26 17:38:19;;;;;;;104.17;57.97;;;;;;;;;;13030478;22;21133;-85
2023/12/26 17:43:23;;;;;;;96.13;57.50;;;;;;;;;;13028939;22;20430;-85
2023/12/26 17:48:27;;;;;;;100.78;59.17;;;;;;;;;;13024215;22;20434;-85
2023/12/26 17:53:30;;;;;;;104.60;59.90;;;;;;;;;;13026813;22;20434;-86
2023/12/26 17:58:32;;;;;;;96.10;56.90;;;;;;;;;;13027663;22;20399;-85
2023/12/26 18:03:36;;;;;;;102.67;58.10;;;;;;;;;;13029204;22;20841;-84
2023/12/26 18:08:39;;;;;;;108.57;59.22;;;;;;;;;;13030466;22;20385;-84
2023/12/26 18:13:41;;;;;;;97.32;57.50;;;;;;;;;;13025826;22;20373;-84
2023/12/26 18:18:45;;;;;;;111.43;61.65;;;;;;;;;;13030602;22;20377;-84
2023/12/26 18:23:47;;;;;;;106.40;62.58;;;;;;;;;;13030008;22;20380;-85
2023/12/26 18:28:50;;;;;;;105.88;60.10;;;;;;;;;;13046571;22;20385;-85
2023/12/26 18:33:55;;;;;;;98.65;59.03;;;;;;;;;;13030765;22;20458;-85
2023/12/26 18:38:58;;;;;;;105.10;58.93;;;;;;;;;;13030668;22;20533;-85
2023/12/26 18:44:00;;;;;;;94.97;58.80;;;;;;;;;;13045756;22;20365;-84
2023/12/26 18:49:06;;;;;;;99.85;57.90;;;;;;;;;;13030181;22;20454;-85
2023/12/26 18:54:08;;;;;;;98.78;58.15;;;;;;;;;;13029489;22;20403;-85
2023/12/26 18:59:11;;;;;;;114.38;63.50;;;;;;;;;;13028223;22;20368;-85
2023/12/26 19:04:17;;;;;;;106.32;60.33;;;;;;;;;;13029048;22;20399;-85
2023/12/26 19:09:23;;;;;;;115.03;64.03;;;;;;;;;;13031086;22;20424;-85
2023/12/26 19:14:25;;;;;;;127.20;72.15;;;;;;;;;;13033313;22;20372;-85
2023/12/26 19:19:29;;;;;;;128.93;76.50;;;;;;;;;;13033915;22;20832;-85
2023/12/26 19:24:31;;;;;;;122.40;69.57;;;;;;;;;;13033452;22;20373;-85
2023/12/26 19:29:33;;;;;;;122.90;70.13;;;;;;;;;;13035362;22;20918;-85
2023/12/26 19:34:44;;;;;;;143.07;78.95;;;;;;;;;;13035810;22;20377;-86
2023/12/26 19:39:58;;;;;;;140.17;81.97;;;;;;;;;;13032951;22;20384;-85
2023/12/26 19:45:00;;;;;;;136.53;79.63;;;;;;;;;;13033787;22;20380;-84
2023/12/26 19:50:04;;;;;;;133.97;76.47;;;;;;;;;;13034270;22;20884;-85
2023/12/26 19:55:09;;;;;;;126.30;72.33;;;;;;;;;;13050840;22;20377;-84
2023/12/26 20:00:13;;;;;;;121.45;67.43;;;;;;;;;;13033502;22;20380;-84
2023/12/26 20:05:17;;;;;;;108.73;63.93;;;;;;;;;;13031020;22;20376;-84
2023/12/26 20:10:19;;;;;;;117.40;67.35;;;;;;;;;;13031423;22;20921;-85
2023/12/26 20:15:22;;;;;;;121.40;72.15;;;;;;;;;;13031269;22;20384;-85
2023/12/26 20:20:25;;;;;;;125.75;75.68;;;;;;;;;;13031659;22;20411;-84
2023/12/26 20:25:28;;;;;;;135.17;79.27;;;;;;;;;;13028423;22;20380;-80
2023/12/26 20:30:30;;;;;;;139.10;78.17;;;;;;;;;;13032167;22;20389;-87
2023/12/26 20:35:34;;;;;;;144.43;83.50;;;;;;;;;;13044343;22;20377;-86
2023/12/26 20:40:36;;;;;;;140.48;80.05;;;;;;;;;;13032836;22;20396;-86
2023/12/26 20:45:39;;;;;;;139.20;79.82;;;;;;;;;;13046635;22;20366;-86
2023/12/26 20:50:43;;;;;;;138.10;79.43;;;;;;;;;;13034672;22;20449;-87
2023/12/26 20:55:46;;;;;;;145.55;80.28;;;;;;;;;;13030960;22;20486;-84
2023/12/26 21:00:48;;;;;;;148.90;82.68;;;;;;;;;;13040752;22;20377;-84
2023/12/26 23:29:19;;;;;;;87.07;54.85;;;;;;;;;;12962188;22;20420;-84
2023/12/26 23:34:21;;;;;;;91.47;58.57;;;;;;;;;;12933584;23;20748;-83
2023/12/26 23:39:23;;;;;;;90.27;56.10;;;;;;;;;;12942103;23;20364;-83
2023/12/26 23:44:27;;;;;;;89.03;57.08;;;;;;;;;;12911916;22;20401;-84
2023/12/26 23:49:30;;;;;;;88.55;55.42;;;;;;;;;;12911649;22;20477;-83
2023/12/26 23:54:33;;;;;;;83.57;53.20;;;;;;;;;;12914596;22;20418;-83
2023/12/26 23:59:37;;;;;;;88.00;56.83;;;;;;;;;;12915144;23;20410;-83
